createdAt,value
2023-04-20T00:02:22.014Z,13.40
2023-04-20T00:04:50.938Z,9.20
2023-04-20T00:07:19.819Z,8.60
2023-04-20T00:09:48.098Z,6.10
2023-04-20T00:12:16.979Z,7.20
2023-04-20T00:14:45.422Z,8.90
2023-04-20T00:17:13.634Z,7.40
2023-04-20T00:19:42.113Z,11.50
2023-04-20T00:22:10.597Z,6.70
2023-04-20T00:24:38.793Z,8.30
2023-04-20T00:27:07.145Z,8.50
2023-04-20T00:29:36.152Z,9.00
2023-04-20T00:32:06.458Z,10.30
2023-04-20T00:34:35.248Z,14.60
2023-04-20T00:37:03.932Z,12.10
2023-04-20T00:39:32.516Z,16.20
2023-04-20T00:44:35.737Z,16.20
2023-04-20T00:47:04.439Z,15.40
2023-04-20T00:49:34.633Z,20.30
2023-04-20T00:52:03.106Z,16.30
2023-04-20T00:54:32.614Z,18.00
2023-04-20T00:57:01.096Z,18.00
2023-04-20T00:59:29.672Z,19.50
2023-04-20T01:01:58.660Z,25.30
2023-04-20T01:04:27.347Z,20.30
2023-04-20T01:06:55.832Z,13.20
2023-04-20T01:09:24.127Z,12.80
2023-04-20T01:11:52.999Z,12.00
2023-04-20T01:14:21.382Z,13.10
2023-04-20T01:16:49.963Z,12.90
2023-04-20T01:19:19.033Z,14.30
2023-04-20T01:21:48.252Z,15.10
2023-04-20T01:24:17.758Z,12.50
2023-04-20T01:26:46.140Z,15.80
2023-04-20T01:29:14.874Z,15.60
2023-04-20T01:31:44.398Z,13.60
2023-04-20T01:34:12.713Z,15.40
2023-04-20T01:36:41.493Z,17.00
2023-04-20T01:39:10.242Z,12.70
2023-04-20T01:41:39.682Z,14.00
2023-04-20T01:44:08.292Z,7.80
2023-04-20T01:46:40.063Z,12.50
2023-04-20T01:49:09.222Z,17.60
2023-04-20T01:51:38.111Z,10.30
2023-04-20T01:54:06.490Z,14.40
2023-04-20T01:56:36.320Z,11.30
2023-04-20T01:59:04.986Z,10.80
2023-04-20T02:01:35.415Z,11.60
2023-04-20T02:04:03.922Z,10.80
2023-04-20T02:06:33.532Z,10.00
2023-04-20T02:09:01.883Z,11.10
2023-04-20T02:11:30.795Z,10.50
2023-04-20T02:13:59.060Z,12.80
2023-04-20T02:16:29.813Z,12.60
2023-04-20T02:18:58.319Z,9.80
2023-04-20T02:21:26.649Z,8.40
2023-04-20T02:23:54.936Z,7.90
2023-04-20T02:26:24.005Z,11.80
2023-04-20T02:28:52.485Z,9.80
2023-04-20T02:31:20.793Z,12.20
2023-04-20T02:33:50.264Z,13.30
2023-04-20T02:36:18.643Z,21.30
2023-04-20T02:38:47.122Z,13.90
2023-04-20T02:41:15.511Z,12.70
2023-04-20T02:43:44.312Z,23.50
2023-04-20T02:46:13.018Z,22.00
2023-04-20T02:48:42.081Z,15.20
2023-04-20T02:51:10.861Z,23.30
2023-04-20T02:53:43.956Z,18.00
2023-04-20T02:56:25.228Z,13.30
2023-04-20T02:58:56.166Z,15.10
2023-04-20T03:01:44.527Z,14.00
2023-04-20T03:04:16.620Z,11.80
2023-04-20T03:07:18.644Z,11.30
2023-04-20T03:09:47.873Z,10.80
2023-04-20T03:12:42.969Z,9.50
2023-04-20T03:15:28.736Z,11.80
2023-04-20T03:18:04.931Z,12.70
2023-04-20T03:20:33.785Z,11.00
2023-04-20T03:23:02.375Z,8.50
2023-04-20T03:25:32.493Z,13.20
2023-04-20T03:28:03.480Z,8.70
2023-04-20T03:30:33.036Z,9.30
2023-04-20T03:33:06.165Z,9.10
2023-04-20T03:35:35.316Z,8.50
2023-04-20T03:38:03.899Z,10.50
2023-04-20T03:40:32.795Z,8.10
2023-04-20T03:43:01.165Z,8.00
2023-04-20T03:45:29.925Z,9.50
2023-04-20T03:47:58.432Z,10.10
2023-04-20T03:50:27.321Z,8.90
2023-04-20T03:52:56.315Z,8.90
2023-04-20T03:55:24.693Z,11.90
2023-04-20T03:57:59.320Z,9.00
2023-04-20T04:00:28.113Z,8.70
2023-04-20T04:02:59.934Z,9.10
2023-04-20T04:05:29.538Z,11.80
2023-04-20T04:07:58.361Z,11.60
2023-04-20T04:10:27.169Z,16.30
2023-04-20T04:12:55.740Z,14.40
2023-04-20T04:15:24.433Z,15.00
2023-04-20T04:17:59.453Z,13.60
2023-04-20T04:20:29.265Z,14.60
2023-04-20T04:22:58.462Z,16.70
2023-04-20T04:25:34.318Z,12.70
2023-04-20T04:28:02.697Z,19.20
2023-04-20T04:30:31.683Z,15.90
2023-04-20T04:33:00.408Z,17.40
2023-04-20T04:35:30.728Z,18.00
2023-04-20T04:37:59.483Z,12.50
2023-04-20T04:40:28.170Z,14.90
2023-04-20T04:42:57.189Z,18.50
2023-04-20T04:45:25.537Z,13.60
2023-04-20T04:47:54.466Z,14.40
2023-04-20T04:50:23.044Z,12.60
2023-04-20T04:52:53.337Z,13.20
2023-04-20T04:55:21.822Z,12.20
2023-04-20T04:57:50.000Z,14.80
2023-04-20T05:00:19.289Z,15.70
2023-04-20T05:02:47.781Z,15.30
2023-04-20T05:05:16.977Z,17.30
2023-04-20T05:07:46.068Z,19.10
2023-04-20T05:10:15.213Z,19.80
2023-04-20T05:12:44.871Z,17.20
2023-04-20T05:15:13.147Z,16.30
2023-04-20T05:17:41.713Z,13.40
2023-04-20T05:20:11.957Z,15.70
2023-04-20T05:22:40.869Z,14.60
2023-04-20T05:25:11.626Z,16.90
2023-04-20T05:27:41.998Z,13.10
2023-04-20T05:30:20.245Z,13.10
2023-04-20T05:32:52.255Z,15.60
2023-04-20T05:35:21.747Z,13.20
2023-04-20T05:37:50.285Z,14.50
2023-04-20T05:40:18.845Z,13.30
2023-04-20T05:42:47.482Z,18.40
2023-04-20T05:45:16.311Z,14.60
2023-04-20T05:47:53.426Z,17.60
2023-04-20T05:50:22.996Z,17.10
2023-04-20T05:52:52.131Z,18.20
2023-04-20T05:55:22.889Z,17.40
2023-04-20T05:57:52.455Z,19.10
2023-04-20T06:00:22.014Z,17.20
2023-04-20T06:02:51.560Z,15.60
2023-04-20T06:05:21.324Z,19.40
2023-04-20T06:07:49.838Z,17.70
2023-04-20T06:10:18.639Z,15.60
2023-04-20T06:12:47.935Z,31.10
2023-04-20T06:15:16.416Z,19.60
2023-04-20T06:17:45.012Z,24.50
2023-04-20T06:20:13.604Z,16.40
2023-04-20T06:22:45.643Z,23.80
2023-04-20T06:25:15.949Z,18.10
2023-04-20T06:27:44.568Z,19.40
2023-04-20T06:30:13.456Z,20.30
2023-04-20T06:32:42.159Z,18.90
2023-04-20T06:35:10.804Z,23.40
2023-04-20T06:37:40.615Z,19.90
2023-04-20T06:40:09.091Z,16.90
2023-04-20T06:42:37.910Z,22.90
2023-04-20T06:45:07.685Z,16.50
2023-04-20T06:47:36.404Z,19.70
2023-04-20T06:50:10.004Z,23.10
2023-04-20T06:52:39.590Z,20.00
2023-04-20T06:55:08.987Z,19.60
2023-04-20T06:57:40.233Z,16.10
2023-04-20T07:00:10.096Z,18.40
2023-04-20T07:02:48.362Z,17.30
2023-04-20T07:05:17.466Z,14.00
2023-04-20T07:07:46.454Z,13.60
2023-04-20T07:10:15.240Z,13.30
2023-04-20T07:12:44.318Z,13.30
2023-04-20T07:15:13.253Z,13.30
2023-04-20T07:17:42.404Z,11.20
2023-04-20T07:20:11.602Z,14.70
2023-04-20T07:22:40.253Z,13.50
2023-04-20T07:25:09.801Z,16.60
2023-04-20T07:27:39.559Z,14.60
2023-04-20T07:30:09.099Z,13.20
2023-04-20T07:32:38.214Z,13.50
2023-04-20T07:35:07.111Z,14.10
2023-04-20T07:37:35.988Z,14.50
2023-04-20T07:40:06.963Z,14.40
2023-04-20T07:42:37.550Z,19.40
2023-04-20T07:45:06.867Z,19.60
2023-04-20T07:47:35.568Z,17.80
2023-04-20T07:50:05.369Z,23.00
2023-04-20T07:52:33.950Z,19.30
2023-04-20T07:55:02.540Z,20.00
2023-04-20T07:57:31.831Z,23.40
2023-04-20T08:00:00.210Z,20.80
2023-04-20T08:02:28.734Z,21.30
2023-04-20T08:04:57.655Z,18.80
2023-04-20T08:07:26.399Z,18.30
2023-04-20T08:09:55.051Z,17.30
2023-04-20T08:12:23.837Z,15.40
2023-04-20T08:14:52.020Z,15.70
2023-04-20T08:17:20.988Z,14.30
2023-04-20T08:19:49.480Z,14.70
2023-04-20T08:22:17.967Z,14.10
2023-04-20T08:24:47.264Z,13.70
2023-04-20T08:27:15.657Z,14.80
2023-04-20T08:29:43.915Z,14.10
2023-04-20T08:32:13.130Z,13.60
2023-04-20T08:34:41.532Z,16.20
2023-04-20T08:37:10.901Z,16.80
2023-04-20T08:39:39.381Z,19.20
2023-04-20T08:42:07.964Z,17.80
2023-04-20T08:48:00.349Z,15.50
2023-04-20T08:50:28.905Z,17.00
2023-04-20T08:52:58.030Z,15.90
2023-04-20T08:55:27.192Z,18.00
2023-04-20T08:57:55.883Z,16.20
2023-04-20T09:00:24.154Z,16.90
2023-04-20T09:02:54.788Z,19.50
2023-04-20T09:05:31.022Z,16.60
2023-04-20T09:08:00.561Z,19.80
2023-04-20T09:10:40.599Z,17.50
2023-04-20T09:13:10.114Z,16.70
2023-04-20T09:15:38.410Z,16.30
2023-04-20T09:18:17.819Z,16.20
2023-04-20T09:20:46.508Z,18.00
2023-04-20T09:23:18.370Z,12.30
2023-04-20T09:25:50.335Z,16.20
2023-04-20T09:28:19.545Z,6.50
2023-04-20T09:30:49.404Z,4.70
2023-04-20T09:33:19.865Z,3.50
2023-04-20T09:35:48.445Z,3.30
2023-04-20T09:38:17.339Z,4.50
2023-04-20T09:40:45.916Z,3.80
2023-04-20T09:43:18.422Z,2.70
2023-04-20T09:45:46.722Z,2.10
2023-04-20T09:48:19.300Z,2.70
2023-04-20T09:50:50.488Z,3.60
2023-04-20T09:53:20.313Z,2.20
2023-04-20T09:55:50.205Z,3.00
2023-04-20T09:58:20.531Z,3.70
2023-04-20T10:00:49.481Z,3.30
2023-04-20T10:03:19.564Z,3.60
2023-04-20T10:05:48.332Z,2.70
2023-04-20T10:08:17.026Z,3.20
2023-04-20T10:14:16.136Z,2.20
2023-04-20T10:16:45.672Z,3.00
2023-04-20T10:19:14.034Z,3.70
2023-04-20T10:21:49.472Z,3.00
2023-04-20T10:24:30.644Z,3.90
2023-04-20T10:26:59.131Z,2.40
2023-04-20T10:29:28.116Z,2.10
2023-04-20T10:31:56.914Z,2.70
2023-04-20T10:34:35.347Z,4.40
2023-04-20T10:37:11.179Z,2.10
2023-04-20T10:39:46.374Z,2.50
2023-04-20T10:42:16.708Z,3.30
2023-04-20T10:44:53.929Z,2.40
2023-04-20T10:47:29.881Z,3.90
2023-04-20T10:50:09.426Z,3.50
2023-04-20T10:52:39.229Z,2.20
2023-04-20T10:55:18.356Z,2.70
2023-04-20T10:57:46.602Z,2.30
2023-04-20T11:00:17.286Z,2.60
2023-04-20T11:02:56.837Z,3.20
2023-04-20T11:05:27.777Z,3.20
2023-04-20T11:08:00.036Z,2.90
2023-04-20T11:10:41.401Z,1.80
2023-04-20T11:13:24.113Z,2.10
2023-04-20T11:15:52.727Z,2.70
2023-04-20T11:18:21.856Z,4.90
2023-04-20T11:20:57.146Z,8.10
2023-04-20T11:23:28.545Z,4.30
2023-04-20T11:25:57.089Z,4.50
2023-04-20T11:28:30.763Z,6.20
2023-04-20T11:30:59.046Z,4.00
2023-04-20T11:33:28.679Z,3.40
2023-04-20T11:35:58.166Z,4.20
2023-04-20T11:38:34.626Z,3.50
2023-04-20T11:41:08.088Z,6.40
2023-04-20T11:43:36.799Z,3.60
2023-04-20T11:46:14.789Z,4.60
2023-04-20T11:48:43.595Z,3.30
2023-04-20T11:51:11.973Z,4.80
2023-04-20T11:53:40.968Z,4.90
2023-04-20T11:56:09.467Z,3.40
2023-04-20T11:58:38.591Z,4.70
2023-04-20T12:01:07.222Z,3.70
2023-04-20T12:03:35.651Z,4.00
2023-04-20T12:06:04.901Z,4.40
2023-04-20T12:08:33.594Z,4.50
2023-04-20T12:11:01.900Z,4.30
2023-04-20T12:13:30.651Z,6.20
2023-04-20T12:15:58.982Z,4.60
2023-04-20T12:18:27.410Z,4.40
2023-04-20T12:20:55.788Z,6.10
2023-04-20T12:23:24.277Z,3.80
2023-04-20T12:25:52.949Z,3.50
2023-04-20T12:28:21.540Z,4.00
2023-04-20T12:30:50.035Z,4.40
2023-04-20T12:33:18.806Z,4.00
2023-04-20T12:35:47.180Z,3.80
2023-04-20T12:38:15.866Z,5.30
2023-04-20T12:40:44.347Z,6.00
2023-04-20T12:43:12.723Z,3.90
2023-04-20T12:45:41.213Z,5.30
2023-04-20T12:48:09.500Z,4.60
2023-04-20T12:50:38.505Z,4.80
2023-04-20T12:53:06.846Z,5.30
2023-04-20T12:55:35.746Z,7.80
2023-04-20T12:58:04.046Z,6.90
2023-04-20T13:00:32.536Z,6.20
2023-04-20T13:03:01.563Z,5.50
2023-04-20T13:05:30.481Z,7.10
2023-04-20T13:07:58.765Z,6.60
2023-04-20T13:10:27.241Z,4.40
2023-04-20T13:12:58.084Z,4.40
2023-04-20T13:15:38.201Z,7.50
2023-04-20T13:18:08.017Z,10.20
2023-04-20T13:20:37.046Z,9.80
2023-04-20T13:23:05.822Z,10.50
2023-04-20T13:25:34.849Z,8.00
2023-04-20T13:28:03.220Z,7.20
2023-04-20T13:30:32.385Z,8.00
2023-04-20T13:33:01.119Z,7.30
2023-04-20T13:35:30.066Z,4.10
2023-04-20T13:37:58.853Z,7.20
2023-04-20T13:40:27.435Z,5.50
2023-04-20T13:42:56.019Z,6.90
2023-04-20T13:45:24.924Z,5.20
2023-04-20T13:47:53.280Z,7.80
2023-04-20T13:50:21.869Z,8.10
2023-04-20T13:52:50.261Z,6.20
2023-04-20T13:55:20.806Z,6.70
2023-04-20T13:57:49.156Z,7.90
2023-04-20T14:00:18.257Z,9.40
2023-04-20T14:02:46.939Z,5.50
2023-04-20T14:05:15.416Z,6.50
2023-04-20T14:07:43.695Z,6.60
2023-04-20T14:10:12.114Z,5.90
2023-04-20T14:12:40.765Z,10.10
2023-04-20T14:15:11.466Z,5.80
2023-04-20T14:17:40.191Z,6.30
2023-04-20T14:20:09.690Z,4.30
2023-04-20T14:22:38.269Z,8.30
2023-04-20T14:25:07.687Z,8.20
2023-04-20T14:27:36.354Z,5.20
2023-04-20T14:30:05.502Z,4.80
2023-04-20T14:32:34.695Z,5.80
2023-04-20T14:35:05.533Z,5.20
2023-04-20T14:37:34.578Z,3.90
2023-04-20T14:40:03.574Z,4.60
2023-04-20T14:42:32.255Z,4.30
2023-04-20T14:45:00.849Z,5.10
2023-04-20T14:47:29.246Z,5.70
2023-04-20T14:49:57.498Z,2.80
2023-04-20T14:52:25.784Z,3.50
2023-04-20T14:54:54.660Z,2.00
2023-04-20T14:57:22.935Z,2.00
2023-04-20T14:59:51.455Z,3.60
2023-04-20T15:02:19.926Z,1.80
2023-04-20T15:04:49.148Z,3.30
2023-04-20T15:07:18.912Z,2.10
2023-04-20T15:09:48.187Z,1.80
2023-04-20T15:12:16.686Z,2.40
2023-04-20T15:14:44.993Z,1.80
2023-04-20T15:17:14.569Z,3.70
2023-04-20T15:19:46.317Z,5.70
2023-04-20T15:22:14.906Z,7.00
2023-04-20T15:24:43.197Z,4.30
2023-04-20T15:27:11.661Z,3.80
2023-04-20T15:29:40.140Z,5.60
2023-04-20T15:32:08.956Z,5.60
2023-04-20T15:34:37.617Z,3.70
2023-04-20T15:37:06.260Z,6.20
2023-04-20T15:39:34.571Z,7.30
2023-04-20T15:42:03.273Z,5.70
2023-04-20T15:44:32.456Z,4.30
2023-04-20T15:47:01.884Z,3.60
2023-04-20T15:49:30.357Z,3.60
2023-04-20T15:51:58.820Z,5.50
2023-04-20T15:54:27.300Z,3.10
2023-04-20T15:56:55.909Z,3.20
2023-04-20T15:59:24.264Z,3.10
2023-04-20T16:01:53.563Z,3.50
2023-04-20T16:04:22.256Z,4.40
2023-04-20T16:06:50.934Z,2.30
2023-04-20T16:09:20.735Z,4.60
2023-04-20T16:11:50.047Z,4.50
2023-04-20T16:14:18.859Z,3.40
2023-04-20T16:16:47.411Z,3.30
2023-04-20T16:19:15.814Z,4.70
2023-04-20T16:21:44.583Z,3.70
2023-04-20T16:24:12.863Z,4.10
2023-04-20T16:26:41.542Z,5.40
2023-04-20T16:29:10.328Z,7.40
2023-04-20T16:31:38.660Z,3.60
2023-04-20T16:34:07.291Z,5.00
2023-04-20T16:36:35.574Z,4.30
2023-04-20T16:39:06.504Z,3.40
2023-04-20T16:41:34.785Z,4.60
2023-04-20T16:44:03.159Z,8.30
2023-04-20T16:46:32.313Z,4.70
2023-04-20T16:49:00.736Z,4.10
2023-04-20T16:51:29.635Z,3.40
2023-04-20T16:57:23.522Z,5.60
2023-04-20T16:59:52.004Z,4.30
2023-04-20T17:02:20.538Z,5.50
2023-04-20T17:04:49.169Z,4.20
2023-04-20T17:07:17.859Z,4.80
2023-04-20T17:09:46.845Z,4.70
2023-04-20T17:12:15.633Z,5.30
2023-04-20T17:14:44.037Z,7.30
2023-04-20T17:17:12.390Z,3.10
2023-04-20T17:19:41.076Z,3.20
2023-04-20T17:22:10.475Z,5.90
2023-04-20T17:24:38.902Z,3.70
2023-04-20T17:27:07.133Z,6.10
2023-04-20T17:29:38.700Z,3.60
2023-04-20T17:32:07.326Z,6.30
2023-04-20T17:34:36.079Z,3.10
2023-04-20T17:37:04.756Z,6.30
2023-04-20T17:39:33.135Z,5.20
2023-04-20T17:42:01.809Z,4.80
2023-04-20T17:44:30.184Z,2.60
2023-04-20T17:46:59.820Z,3.30
2023-04-20T17:49:28.983Z,6.70
2023-04-20T17:51:57.770Z,2.80
2023-04-20T17:54:26.149Z,2.60
2023-04-20T17:56:55.038Z,3.80
2023-04-20T17:59:23.519Z,1.80
2023-04-20T18:01:51.914Z,3.70
2023-04-20T18:04:21.121Z,5.90
2023-04-20T18:06:51.726Z,5.20
2023-04-20T18:09:20.012Z,4.30
2023-04-20T18:11:48.586Z,1.90
2023-04-20T18:14:17.228Z,1.40
2023-04-20T18:16:46.278Z,1.40
2023-04-20T18:19:14.540Z,1.40
2023-04-20T18:21:42.965Z,2.10
2023-04-20T18:24:12.155Z,1.80
2023-04-20T18:26:40.804Z,1.20
2023-04-20T18:29:09.085Z,3.40
2023-04-20T18:31:37.565Z,1.90
2023-04-20T18:34:05.901Z,2.50
2023-04-20T18:36:35.236Z,2.00
2023-04-20T18:39:04.227Z,3.00
2023-04-20T18:41:32.501Z,4.40
2023-04-20T18:44:01.667Z,4.10
2023-04-20T18:46:30.212Z,2.70
2023-04-20T18:48:58.766Z,4.90
2023-04-20T18:51:27.914Z,3.70
2023-04-20T18:53:56.241Z,7.00
2023-04-20T18:56:24.654Z,2.40
2023-04-20T18:58:53.204Z,2.50
2023-04-20T19:01:21.847Z,1.30
2023-04-20T19:03:50.630Z,2.30
2023-04-20T19:06:19.151Z,2.80
2023-04-20T19:08:47.631Z,1.30
2023-04-20T19:11:15.921Z,4.30
2023-04-20T19:13:45.618Z,4.80
2023-04-20T19:16:14.112Z,2.40
2023-04-20T19:18:42.574Z,3.20
2023-04-20T19:21:10.957Z,3.60
2023-04-20T19:23:39.287Z,3.80
2023-04-20T19:26:07.870Z,2.50
2023-04-20T19:28:36.509Z,1.70
2023-04-20T19:31:05.811Z,1.30
2023-04-20T19:33:34.173Z,3.50
2023-04-20T19:36:03.684Z,1.80
2023-04-20T19:38:34.665Z,2.60
2023-04-20T19:41:03.001Z,1.40
2023-04-20T19:43:35.576Z,4.30
2023-04-20T19:46:04.322Z,2.20
2023-04-20T19:48:33.047Z,2.60
2023-04-20T19:51:03.780Z,2.70
2023-04-20T19:53:32.466Z,2.00
2023-04-20T19:56:00.844Z,2.00
2023-04-20T19:58:29.431Z,1.80
2023-04-20T20:00:58.136Z,2.40
2023-04-20T20:03:27.718Z,1.90
2023-04-20T20:05:56.926Z,2.20
2023-04-20T20:08:25.705Z,2.20
2023-04-20T20:10:53.991Z,2.90
2023-04-20T20:13:22.768Z,1.10
2023-04-20T20:15:51.965Z,1.00
2023-04-20T20:18:20.859Z,4.00
2023-04-20T20:20:50.671Z,3.50
2023-04-20T20:23:18.993Z,2.60
2023-04-20T20:25:47.533Z,3.10
2023-04-20T20:28:16.121Z,4.00
2023-04-20T20:30:45.549Z,4.10
2023-04-20T20:33:14.090Z,1.40
2023-04-20T20:35:42.773Z,5.20
2023-04-20T20:38:11.377Z,3.20
2023-04-20T20:40:40.246Z,5.10
2023-04-20T20:43:09.166Z,2.00
2023-04-20T20:45:37.721Z,2.00
2023-04-20T20:48:06.533Z,1.90
2023-04-20T20:50:35.305Z,1.80
2023-04-20T20:53:03.572Z,2.30
2023-04-20T20:55:32.055Z,5.30
2023-04-20T20:58:00.747Z,3.30
2023-04-20T21:00:29.152Z,1.60
2023-04-20T21:02:57.960Z,1.50
2023-04-20T21:05:26.485Z,2.80
2023-04-20T21:07:54.993Z,2.60
2023-04-20T21:10:23.345Z,1.50
2023-04-20T21:12:51.624Z,4.00
2023-04-20T21:15:20.202Z,3.60
2023-04-20T21:17:48.501Z,3.00
2023-04-20T21:20:17.281Z,2.10
2023-04-20T21:22:45.750Z,1.70
2023-04-20T21:25:14.042Z,2.70
2023-04-20T21:27:42.614Z,2.60
2023-04-20T21:30:11.815Z,2.60
2023-04-20T21:32:40.798Z,2.20
2023-04-20T21:35:09.358Z,2.10
2023-04-20T21:37:38.388Z,3.20
2023-04-20T21:40:10.492Z,3.70
2023-04-20T21:42:38.815Z,2.20
2023-04-20T21:45:08.004Z,2.30
2023-04-20T21:47:36.592Z,4.50
2023-04-20T21:50:05.760Z,4.00
2023-04-20T21:52:34.388Z,2.00
2023-04-20T21:55:02.860Z,3.00
2023-04-20T21:57:31.542Z,1.90
2023-04-20T21:59:59.825Z,2.90
2023-04-20T22:02:28.414Z,3.10
2023-04-20T22:04:57.290Z,3.00
2023-04-20T22:07:27.844Z,3.10
2023-04-20T22:09:56.299Z,2.10
2023-04-20T22:12:38.291Z,3.80
2023-04-20T22:15:10.086Z,2.40
2023-04-20T22:17:38.589Z,3.00
2023-04-20T22:20:09.307Z,2.50
2023-04-20T22:22:38.091Z,1.90
2023-04-20T22:25:07.363Z,2.90
2023-04-20T22:27:36.553Z,2.10
2023-04-20T22:30:09.788Z,1.70
2023-04-20T22:32:39.005Z,1.60
2023-04-20T22:35:08.240Z,1.70
2023-04-20T22:37:37.041Z,4.10
2023-04-20T22:40:06.405Z,3.30
2023-04-20T22:42:36.450Z,2.10
2023-04-20T22:45:05.859Z,4.50
2023-04-20T22:47:35.401Z,5.50
2023-04-20T22:50:04.347Z,3.00
2023-04-20T22:52:32.885Z,5.00
2023-04-20T22:55:01.209Z,3.00
2023-04-20T22:57:30.124Z,2.30
2023-04-20T22:59:58.368Z,2.50
2023-04-20T23:02:27.230Z,2.60
2023-04-20T23:04:56.053Z,2.30
2023-04-20T23:07:24.529Z,2.40
2023-04-20T23:09:54.032Z,6.90
2023-04-20T23:12:22.819Z,3.70
2023-04-20T23:14:51.095Z,2.30
2023-04-20T23:17:19.681Z,3.40
2023-04-20T23:19:47.953Z,5.70
2023-04-20T23:22:16.435Z,3.60
2023-04-20T23:24:45.014Z,4.40
2023-04-20T23:27:13.195Z,4.30
2023-04-20T23:29:41.979Z,3.20
2023-04-20T23:32:10.610Z,3.00
2023-04-20T23:34:39.351Z,3.70
2023-04-20T23:37:07.727Z,4.50
2023-04-20T23:39:37.776Z,4.20
2023-04-20T23:42:06.659Z,4.00
2023-04-20T23:44:35.340Z,4.10
2023-04-20T23:47:03.843Z,4.30
2023-04-20T23:49:32.628Z,3.40
2023-04-20T23:52:01.071Z,4.10
2023-04-20T23:54:31.740Z,4.10
2023-04-20T23:59:31.433Z,2.80
